sensor_id;sensor_type;location;lat;lon;timestamp;P1;durP1;ratioP1;P2;durP2;ratioP2
14510;SDS011;7341;50.930;4.038;2023-02-01T00:01:31;23.80;;;6.27;;
14510;SDS011;7341;50.930;4.038;2023-02-01T00:03:59;17.43;;;5.77;;
14510;SDS011;7341;50.930;4.038;2023-02-01T00:06:26;17.47;;;5.60;;
14510;SDS011;7341;50.930;4.038;2023-02-01T00:08:55;18.37;;;5.00;;
14510;SDS011;7341;50.930;4.038;2023-02-01T00:11:23;17.40;;;4.33;;
14510;SDS011;7341;50.930;4.038;2023-02-01T00:13:58;16.87;;;4.93;;
14510;SDS011;7341;50.930;4.038;2023-02-01T00:16:28;11.17;;;3.97;;
14510;SDS011;7341;50.930;4.038;2023-02-01T00:18:57;13.13;;;4.53;;
14510;SDS011;7341;50.930;4.038;2023-02-01T00:21:26;18.47;;;4.67;;
14510;SDS011;7341;50.930;4.038;2023-02-01T00:23:58;16.33;;;4.70;;
14510;SDS011;7341;50.930;4.038;2023-02-01T00:26:30;15.90;;;4.23;;
14510;SDS011;7341;50.930;4.038;2023-02-01T00:29:00;21.20;;;4.80;;
14510;SDS011;7341;50.930;4.038;2023-02-01T00:31:30;16.80;;;4.93;;
14510;SDS011;7341;50.930;4.038;2023-02-01T00:33:56;19.57;;;4.40;;
14510;SDS011;7341;50.930;4.038;2023-02-01T00:36:23;17.87;;;4.30;;
14510;SDS011;7341;50.930;4.038;2023-02-01T00:38:50;19.20;;;4.43;;
14510;SDS011;7341;50.930;4.038;2023-02-01T00:43:48;17.67;;;4.33;;
14510;SDS011;7341;50.930;4.038;2023-02-01T00:46:17;19.60;;;4.27;;
14510;SDS011;7341;50.930;4.038;2023-02-01T00:48:50;12.53;;;3.97;;
14510;SDS011;7341;50.930;4.038;2023-02-01T00:51:19;18.67;;;4.50;;
14510;SDS011;7341;50.930;4.038;2023-02-01T00:53:47;12.77;;;3.40;;
14510;SDS011;7341;50.930;4.038;2023-02-01T00:56:15;22.30;;;4.30;;
14510;SDS011;7341;50.930;4.038;2023-02-01T00:58:42;18.93;;;4.03;;
14510;SDS011;7341;50.930;4.038;2023-02-01T01:01:12;18.43;;;4.27;;
14510;SDS011;7341;50.930;4.038;2023-02-01T01:03:43;15.47;;;4.57;;
14510;SDS011;7341;50.930;4.038;2023-02-01T01:06:12;23.00;;;4.57;;
14510;SDS011;7341;50.930;4.038;2023-02-01T01:08:46;19.70;;;4.43;;
14510;SDS011;7341;50.930;4.038;2023-02-01T01:11:14;14.07;;;4.17;;
14510;SDS011;7341;50.930;4.038;2023-02-01T01:13:45;14.13;;;4.00;;
14510;SDS011;7341;50.930;4.038;2023-02-01T01:16:13;16.58;;;4.97;;
14510;SDS011;7341;50.930;4.038;2023-02-01T01:18:40;17.90;;;4.57;;
14510;SDS011;7341;50.930;4.038;2023-02-01T01:21:09;14.00;;;3.93;;
14510;SDS011;7341;50.930;4.038;2023-02-01T01:23:37;18.60;;;4.43;;
14510;SDS011;7341;50.930;4.038;2023-02-01T01:26:05;16.73;;;4.27;;
14510;SDS011;7341;50.930;4.038;2023-02-01T01:28:32;13.93;;;3.87;;
14510;SDS011;7341;50.930;4.038;2023-02-01T01:30:59;9.30;;;4.03;;
14510;SDS011;7341;50.930;4.038;2023-02-01T01:33:26;17.07;;;4.30;;
14510;SDS011;7341;50.930;4.038;2023-02-01T01:35:55;15.63;;;4.03;;
14510;SDS011;7341;50.930;4.038;2023-02-01T01:38:24;13.23;;;4.13;;
14510;SDS011;7341;50.930;4.038;2023-02-01T01:40:51;21.50;;;4.20;;
14510;SDS011;7341;50.930;4.038;2023-02-01T01:43:19;17.10;;;4.37;;
14510;SDS011;7341;50.930;4.038;2023-02-01T01:45:49;16.80;;;4.03;;
14510;SDS011;7341;50.930;4.038;2023-02-01T01:48:20;18.30;;;4.60;;
14510;SDS011;7341;50.930;4.038;2023-02-01T01:50:54;22.20;;;4.03;;
14510;SDS011;7341;50.930;4.038;2023-02-01T01:53:28;12.90;;;4.03;;
14510;SDS011;7341;50.930;4.038;2023-02-01T01:56:00;16.23;;;3.50;;
14510;SDS011;7341;50.930;4.038;2023-02-01T01:58:28;16.03;;;4.93;;
14510;SDS011;7341;50.930;4.038;2023-02-01T02:00:59;18.03;;;4.03;;
14510;SDS011;7341;50.930;4.038;2023-02-01T02:03:27;13.33;;;4.07;;
14510;SDS011;7341;50.930;4.038;2023-02-01T02:05:59;20.67;;;4.20;;
14510;SDS011;7341;50.930;4.038;2023-02-01T02:08:30;11.63;;;4.17;;
14510;SDS011;7341;50.930;4.038;2023-02-01T02:10:57;14.33;;;3.67;;
14510;SDS011;7341;50.930;4.038;2023-02-01T02:13:29;22.43;;;5.00;;
14510;SDS011;7341;50.930;4.038;2023-02-01T02:16:18;16.53;;;4.37;;
14510;SDS011;7341;50.930;4.038;2023-02-01T02:18:57;21.70;;;4.50;;
14510;SDS011;7341;50.930;4.038;2023-02-01T02:21:43;17.03;;;4.07;;
14510;SDS011;7341;50.930;4.038;2023-02-01T02:27:32;12.80;;;4.07;;
14510;SDS011;7341;50.930;4.038;2023-02-01T02:33:24;14.00;;;4.60;;
14510;SDS011;7341;50.930;4.038;2023-02-01T02:36:20;17.60;;;4.83;;
14510;SDS011;7341;50.930;4.038;2023-02-01T02:39:01;17.43;;;4.57;;
14510;SDS011;7341;50.930;4.038;2023-02-01T02:41:35;19.23;;;4.43;;
14510;SDS011;7341;50.930;4.038;2023-02-01T02:44:32;20.90;;;4.27;;
14510;SDS011;7341;50.930;4.038;2023-02-01T02:47:24;20.47;;;4.53;;
14510;SDS011;7341;50.930;4.038;2023-02-01T02:50:04;14.57;;;3.83;;
14510;SDS011;7341;50.930;4.038;2023-02-01T02:52:58;11.80;;;4.17;;
14510;SDS011;7341;50.930;4.038;2023-02-01T02:56:03;21.60;;;4.00;;
14510;SDS011;7341;50.930;4.038;2023-02-01T02:58:52;15.93;;;4.40;;
14510;SDS011;7341;50.930;4.038;2023-02-01T03:01:39;17.20;;;4.57;;
14510;SDS011;7341;50.930;4.038;2023-02-01T03:04:24;16.40;;;4.17;;
14510;SDS011;7341;50.930;4.038;2023-02-01T03:06:53;15.57;;;3.77;;
14510;SDS011;7341;50.930;4.038;2023-02-01T03:09:21;19.57;;;4.40;;
14510;SDS011;7341;50.930;4.038;2023-02-01T03:11:55;13.83;;;4.27;;
14510;SDS011;7341;50.930;4.038;2023-02-01T03:14:46;19.57;;;4.47;;
14510;SDS011;7341;50.930;4.038;2023-02-01T03:17:18;18.77;;;4.17;;
14510;SDS011;7341;50.930;4.038;2023-02-01T03:19:50;17.33;;;4.57;;
14510;SDS011;7341;50.930;4.038;2023-02-01T03:22:21;18.30;;;4.23;;
14510;SDS011;7341;50.930;4.038;2023-02-01T03:24:58;17.80;;;3.67;;
14510;SDS011;7341;50.930;4.038;2023-02-01T03:27:32;15.83;;;3.50;;
14510;SDS011;7341;50.930;4.038;2023-02-01T03:30:04;19.80;;;4.33;;
14510;SDS011;7341;50.930;4.038;2023-02-01T03:32:36;21.00;;;3.73;;
14510;SDS011;7341;50.930;4.038;2023-02-01T03:35:20;18.23;;;4.20;;
14510;SDS011;7341;50.930;4.038;2023-02-01T03:38:00;22.53;;;4.63;;
14510;SDS011;7341;50.930;4.038;2023-02-01T03:40:31;21.37;;;5.40;;
14510;SDS011;7341;50.930;4.038;2023-02-01T03:43:01;15.70;;;4.20;;
14510;SDS011;7341;50.930;4.038;2023-02-01T03:45:34;16.43;;;4.30;;
14510;SDS011;7341;50.930;4.038;2023-02-01T03:48:07;16.83;;;3.73;;
14510;SDS011;7341;50.930;4.038;2023-02-01T03:50:35;15.10;;;4.10;;
14510;SDS011;7341;50.930;4.038;2023-02-01T03:53:07;15.63;;;4.40;;
14510;SDS011;7341;50.930;4.038;2023-02-01T03:55:38;16.43;;;4.23;;
14510;SDS011;7341;50.930;4.038;2023-02-01T03:58:08;14.93;;;3.60;;
14510;SDS011;7341;50.930;4.038;2023-02-01T04:00:40;22.53;;;4.27;;
14510;SDS011;7341;50.930;4.038;2023-02-01T04:03:12;17.10;;;4.50;;
14510;SDS011;7341;50.930;4.038;2023-02-01T04:05:42;19.73;;;4.20;;
14510;SDS011;7341;50.930;4.038;2023-02-01T04:08:10;13.80;;;3.70;;
14510;SDS011;7341;50.930;4.038;2023-02-01T04:10:38;23.10;;;4.20;;
14510;SDS011;7341;50.930;4.038;2023-02-01T04:13:08;17.00;;;4.23;;
14510;SDS011;7341;50.930;4.038;2023-02-01T04:15:36;21.10;;;4.30;;
14510;SDS011;7341;50.930;4.038;2023-02-01T04:18:05;16.27;;;3.30;;
14510;SDS011;7341;50.930;4.038;2023-02-01T04:20:35;16.17;;;3.90;;
14510;SDS011;7341;50.930;4.038;2023-02-01T04:23:03;18.50;;;4.03;;
14510;SDS011;7341;50.930;4.038;2023-02-01T04:28:02;20.80;;;4.83;;
14510;SDS011;7341;50.930;4.038;2023-02-01T04:30:30;15.23;;;3.97;;
14510;SDS011;7341;50.930;4.038;2023-02-01T04:32:57;19.60;;;4.10;;
14510;SDS011;7341;50.930;4.038;2023-02-01T04:35:24;17.70;;;3.57;;
14510;SDS011;7341;50.930;4.038;2023-02-01T04:37:51;14.17;;;3.47;;
14510;SDS011;7341;50.930;4.038;2023-02-01T04:40:19;14.13;;;4.00;;
14510;SDS011;7341;50.930;4.038;2023-02-01T04:42:48;16.70;;;3.30;;
14510;SDS011;7341;50.930;4.038;2023-02-01T04:45:22;18.63;;;3.97;;
14510;SDS011;7341;50.930;4.038;2023-02-01T04:47:51;18.73;;;4.43;;
14510;SDS011;7341;50.930;4.038;2023-02-01T04:50:20;19.27;;;3.93;;
14510;SDS011;7341;50.930;4.038;2023-02-01T04:52:54;12.80;;;4.07;;
14510;SDS011;7341;50.930;4.038;2023-02-01T04:55:22;23.00;;;4.20;;
14510;SDS011;7341;50.930;4.038;2023-02-01T04:57:50;26.97;;;4.97;;
14510;SDS011;7341;50.930;4.038;2023-02-01T05:00:18;16.83;;;4.10;;
14510;SDS011;7341;50.930;4.038;2023-02-01T05:02:45;17.57;;;4.60;;
14510;SDS011;7341;50.930;4.038;2023-02-01T05:05:13;15.30;;;4.33;;
14510;SDS011;7341;50.930;4.038;2023-02-01T05:07:42;20.77;;;4.27;;
14510;SDS011;7341;50.930;4.038;2023-02-01T05:10:09;17.33;;;4.30;;
14510;SDS011;7341;50.930;4.038;2023-02-01T05:12:42;16.53;;;3.90;;
14510;SDS011;7341;50.930;4.038;2023-02-01T05:15:37;19.17;;;3.70;;
14510;SDS011;7341;50.930;4.038;2023-02-01T05:18:05;21.00;;;4.67;;
14510;SDS011;7341;50.930;4.038;2023-02-01T05:20:33;21.77;;;4.30;;
14510;SDS011;7341;50.930;4.038;2023-02-01T05:23:01;18.57;;;3.97;;
14510;SDS011;7341;50.930;4.038;2023-02-01T05:25:34;20.70;;;4.20;;
14510;SDS011;7341;50.930;4.038;2023-02-01T05:28:03;22.03;;;3.90;;
14510;SDS011;7341;50.930;4.038;2023-02-01T05:30:37;15.80;;;3.63;;
14510;SDS011;7341;50.930;4.038;2023-02-01T05:33:04;20.87;;;4.80;;
14510;SDS011;7341;50.930;4.038;2023-02-01T05:35:38;16.77;;;3.97;;
14510;SDS011;7341;50.930;4.038;2023-02-01T05:38:06;12.43;;;4.23;;
14510;SDS011;7341;50.930;4.038;2023-02-01T05:40:34;16.70;;;4.63;;
14510;SDS011;7341;50.930;4.038;2023-02-01T05:43:03;20.90;;;3.27;;
14510;SDS011;7341;50.930;4.038;2023-02-01T05:45:30;16.77;;;3.93;;
14510;SDS011;7341;50.930;4.038;2023-02-01T05:48:02;15.33;;;3.77;;
14510;SDS011;7341;50.930;4.038;2023-02-01T05:50:29;15.80;;;3.53;;
14510;SDS011;7341;50.930;4.038;2023-02-01T05:52:55;15.67;;;3.90;;
14510;SDS011;7341;50.930;4.038;2023-02-01T05:55:22;15.33;;;4.03;;
14510;SDS011;7341;50.930;4.038;2023-02-01T05:57:52;19.17;;;4.43;;
14510;SDS011;7341;50.930;4.038;2023-02-01T06:00:20;23.97;;;4.37;;
14510;SDS011;7341;50.930;4.038;2023-02-01T06:02:47;17.00;;;3.77;;
14510;SDS011;7341;50.930;4.038;2023-02-01T06:05:20;16.70;;;3.80;;
14510;SDS011;7341;50.930;4.038;2023-02-01T06:07:47;23.70;;;4.13;;
14510;SDS011;7341;50.930;4.038;2023-02-01T06:10:16;29.10;;;4.03;;
14510;SDS011;7341;50.930;4.038;2023-02-01T06:12:45;16.87;;;3.63;;
14510;SDS011;7341;50.930;4.038;2023-02-01T06:15:12;19.50;;;3.67;;
14510;SDS011;7341;50.930;4.038;2023-02-01T06:17:43;21.10;;;4.57;;
14510;SDS011;7341;50.930;4.038;2023-02-01T06:20:12;22.03;;;4.40;;
14510;SDS011;7341;50.930;4.038;2023-02-01T06:22:42;16.80;;;4.40;;
14510;SDS011;7341;50.930;4.038;2023-02-01T06:25:15;18.90;;;4.80;;
14510;SDS011;7341;50.930;4.038;2023-02-01T06:27:42;15.03;;;3.77;;
14510;SDS011;7341;50.930;4.038;2023-02-01T06:30:12;16.10;;;4.03;;
14510;SDS011;7341;50.930;4.038;2023-02-01T06:32:39;23.23;;;4.60;;
14510;SDS011;7341;50.930;4.038;2023-02-01T06:35:07;21.10;;;4.03;;
14510;SDS011;7341;50.930;4.038;2023-02-01T06:37:43;21.03;;;4.20;;
14510;SDS011;7341;50.930;4.038;2023-02-01T06:40:11;20.77;;;4.90;;
14510;SDS011;7341;50.930;4.038;2023-02-01T06:42:45;19.43;;;3.70;;
14510;SDS011;7341;50.930;4.038;2023-02-01T06:45:13;21.67;;;4.47;;
14510;SDS011;7341;50.930;4.038;2023-02-01T06:47:42;14.03;;;4.23;;
14510;SDS011;7341;50.930;4.038;2023-02-01T06:50:10;20.10;;;3.87;;
14510;SDS011;7341;50.930;4.038;2023-02-01T06:52:38;19.07;;;4.70;;
14510;SDS011;7341;50.930;4.038;2023-02-01T06:57:39;19.93;;;3.57;;
14510;SDS011;7341;50.930;4.038;2023-02-01T07:00:06;19.57;;;4.73;;
14510;SDS011;7341;50.930;4.038;2023-02-01T07:02:34;18.80;;;4.37;;
14510;SDS011;7341;50.930;4.038;2023-02-01T07:05:05;17.70;;;4.03;;
14510;SDS011;7341;50.930;4.038;2023-02-01T07:07:32;26.67;;;5.63;;
14510;SDS011;7341;50.930;4.038;2023-02-01T07:09:59;19.27;;;4.23;;
14510;SDS011;7341;50.930;4.038;2023-02-01T07:12:27;22.23;;;5.00;;
14510;SDS011;7341;50.930;4.038;2023-02-01T07:14:54;16.90;;;4.17;;
14510;SDS011;7341;50.930;4.038;2023-02-01T07:17:21;20.70;;;3.87;;
14510;SDS011;7341;50.930;4.038;2023-02-01T07:19:49;19.40;;;3.77;;
14510;SDS011;7341;50.930;4.038;2023-02-01T07:22:19;17.70;;;4.10;;
14510;SDS011;7341;50.930;4.038;2023-02-01T07:24:45;13.53;;;3.53;;
14510;SDS011;7341;50.930;4.038;2023-02-01T07:27:12;17.53;;;3.83;;
14510;SDS011;7341;50.930;4.038;2023-02-01T07:29:40;20.70;;;3.90;;
14510;SDS011;7341;50.930;4.038;2023-02-01T07:32:07;17.90;;;3.73;;
14510;SDS011;7341;50.930;4.038;2023-02-01T07:34:34;19.70;;;5.50;;
14510;SDS011;7341;50.930;4.038;2023-02-01T07:37:02;25.50;;;4.80;;
14510;SDS011;7341;50.930;4.038;2023-02-01T07:39:29;16.90;;;4.53;;
14510;SDS011;7341;50.930;4.038;2023-02-01T07:41:57;22.90;;;4.90;;
14510;SDS011;7341;50.930;4.038;2023-02-01T07:44:24;19.17;;;4.83;;
14510;SDS011;7341;50.930;4.038;2023-02-01T07:46:52;17.57;;;3.73;;
14510;SDS011;7341;50.930;4.038;2023-02-01T07:49:19;15.30;;;3.70;;
14510;SDS011;7341;50.930;4.038;2023-02-01T07:51:46;16.83;;;4.33;;
14510;SDS011;7341;50.930;4.038;2023-02-01T07:54:15;18.63;;;4.20;;
14510;SDS011;7341;50.930;4.038;2023-02-01T07:56:41;22.87;;;3.70;;
14510;SDS011;7341;50.930;4.038;2023-02-01T07:59:08;21.97;;;4.90;;
14510;SDS011;7341;50.930;4.038;2023-02-01T08:01:36;20.87;;;3.87;;
14510;SDS011;7341;50.930;4.038;2023-02-01T08:04:03;16.73;;;4.30;;
14510;SDS011;7341;50.930;4.038;2023-02-01T08:06:36;18.53;;;4.73;;
14510;SDS011;7341;50.930;4.038;2023-02-01T08:09:04;23.67;;;4.87;;
14510;SDS011;7341;50.930;4.038;2023-02-01T08:11:38;22.60;;;5.60;;
14510;SDS011;7341;50.930;4.038;2023-02-01T08:14:07;13.07;;;5.23;;
14510;SDS011;7341;50.930;4.038;2023-02-01T08:16:37;16.40;;;3.87;;
14510;SDS011;7341;50.930;4.038;2023-02-01T08:19:06;20.17;;;4.43;;
14510;SDS011;7341;50.930;4.038;2023-02-01T08:21:33;17.97;;;4.10;;
14510;SDS011;7341;50.930;4.038;2023-02-01T08:24:09;27.93;;;4.60;;
14510;SDS011;7341;50.930;4.038;2023-02-01T08:26:36;20.97;;;4.63;;
14510;SDS011;7341;50.930;4.038;2023-02-01T08:29:05;13.63;;;4.30;;
14510;SDS011;7341;50.930;4.038;2023-02-01T08:31:33;20.53;;;4.17;;
14510;SDS011;7341;50.930;4.038;2023-02-01T08:34:01;16.20;;;4.20;;
14510;SDS011;7341;50.930;4.038;2023-02-01T08:36:31;12.13;;;3.77;;
14510;SDS011;7341;50.930;4.038;2023-02-01T08:38:59;23.33;;;4.70;;
14510;SDS011;7341;50.930;4.038;2023-02-01T08:41:30;19.53;;;4.43;;
14510;SDS011;7341;50.930;4.038;2023-02-01T08:43:57;18.40;;;3.90;;
14510;SDS011;7341;50.930;4.038;2023-02-01T08:46:25;17.10;;;3.80;;
14510;SDS011;7341;50.930;4.038;2023-02-01T08:49:01;20.03;;;3.97;;
14510;SDS011;7341;50.930;4.038;2023-02-01T08:51:31;15.77;;;4.13;;
14510;SDS011;7341;50.930;4.038;2023-02-01T08:53:59;14.10;;;4.13;;
14510;SDS011;7341;50.930;4.038;2023-02-01T08:56:26;15.00;;;3.97;;
14510;SDS011;7341;50.930;4.038;2023-02-01T08:58:54;17.10;;;3.70;;
14510;SDS011;7341;50.930;4.038;2023-02-01T09:01:21;22.17;;;5.35;;
14510;SDS011;7341;50.930;4.038;2023-02-01T09:03:50;16.17;;;4.17;;
14510;SDS011;7341;50.930;4.038;2023-02-01T09:06:17;18.00;;;4.00;;
14510;SDS011;7341;50.930;4.038;2023-02-01T09:08:45;19.77;;;4.33;;
14510;SDS011;7341;50.930;4.038;2023-02-01T09:11:13;22.07;;;5.13;;
14510;SDS011;7341;50.930;4.038;2023-02-01T09:13:42;13.00;;;3.97;;
14510;SDS011;7341;50.930;4.038;2023-02-01T09:16:12;18.83;;;3.70;;
14510;SDS011;7341;50.930;4.038;2023-02-01T09:18:39;14.63;;;3.90;;
14510;SDS011;7341;50.930;4.038;2023-02-01T09:21:06;17.97;;;4.90;;
14510;SDS011;7341;50.930;4.038;2023-02-01T09:23:33;19.93;;;4.20;;
14510;SDS011;7341;50.930;4.038;2023-02-01T09:26:06;16.20;;;4.50;;
14510;SDS011;7341;50.930;4.038;2023-02-01T09:28:33;15.43;;;3.47;;
14510;SDS011;7341;50.930;4.038;2023-02-01T09:31:01;19.85;;;4.85;;
14510;SDS011;7341;50.930;4.038;2023-02-01T09:33:28;14.73;;;3.83;;
14510;SDS011;7341;50.930;4.038;2023-02-01T09:36:03;24.37;;;4.47;;
14510;SDS011;7341;50.930;4.038;2023-02-01T09:38:34;24.00;;;4.27;;
14510;SDS011;7341;50.930;4.038;2023-02-01T09:41:10;15.70;;;3.50;;
14510;SDS011;7341;50.930;4.038;2023-02-01T09:43:53;11.77;;;3.73;;
14510;SDS011;7341;50.930;4.038;2023-02-01T09:46:26;16.87;;;3.70;;
14510;SDS011;7341;50.930;4.038;2023-02-01T09:48:56;20.33;;;4.17;;
14510;SDS011;7341;50.930;4.038;2023-02-01T09:51:29;18.33;;;3.70;;
14510;SDS011;7341;50.930;4.038;2023-02-01T09:54:06;20.47;;;4.03;;
14510;SDS011;7341;50.930;4.038;2023-02-01T09:56:40;13.57;;;3.50;;
14510;SDS011;7341;50.930;4.038;2023-02-01T09:59:17;13.97;;;3.67;;
14510;SDS011;7341;50.930;4.038;2023-02-01T10:01:58;18.43;;;3.63;;
14510;SDS011;7341;50.930;4.038;2023-02-01T10:04:28;19.50;;;3.43;;
14510;SDS011;7341;50.930;4.038;2023-02-01T10:07:02;19.43;;;4.00;;
14510;SDS011;7341;50.930;4.038;2023-02-01T10:09:42;17.13;;;3.73;;
14510;SDS011;7341;50.930;4.038;2023-02-01T10:12:24;17.23;;;3.37;;
14510;SDS011;7341;50.930;4.038;2023-02-01T10:15:30;15.27;;;3.03;;
14510;SDS011;7341;50.930;4.038;2023-02-01T10:18:13;11.80;;;3.50;;
14510;SDS011;7341;50.930;4.038;2023-02-01T10:20:52;12.90;;;2.67;;
14510;SDS011;7341;50.930;4.038;2023-02-01T10:23:41;16.60;;;2.87;;
14510;SDS011;7341;50.930;4.038;2023-02-01T10:26:19;16.53;;;3.30;;
14510;SDS011;7341;50.930;4.038;2023-02-01T10:28:50;18.33;;;3.47;;
14510;SDS011;7341;50.930;4.038;2023-02-01T10:31:18;16.23;;;3.73;;
14510;SDS011;7341;50.930;4.038;2023-02-01T10:33:49;9.60;;;3.13;;
14510;SDS011;7341;50.930;4.038;2023-02-01T10:36:19;14.30;;;3.70;;
14510;SDS011;7341;50.930;4.038;2023-02-01T10:38:49;10.33;;;2.77;;
14510;SDS011;7341;50.930;4.038;2023-02-01T10:41:16;10.33;;;3.20;;
14510;SDS011;7341;50.930;4.038;2023-02-01T10:43:45;13.13;;;3.30;;
14510;SDS011;7341;50.930;4.038;2023-02-01T10:46:17;12.03;;;3.83;;
14510;SDS011;7341;50.930;4.038;2023-02-01T10:48:44;20.70;;;3.97;;
14510;SDS011;7341;50.930;4.038;2023-02-01T10:51:19;12.97;;;2.87;;
14510;SDS011;7341;50.930;4.038;2023-02-01T10:53:55;15.20;;;3.27;;
14510;SDS011;7341;50.930;4.038;2023-02-01T10:56:27;13.07;;;3.10;;
14510;SDS011;7341;50.930;4.038;2023-02-01T10:58:59;14.45;;;4.10;;
14510;SDS011;7341;50.930;4.038;2023-02-01T11:01:30;12.50;;;3.03;;
14510;SDS011;7341;50.930;4.038;2023-02-01T11:04:00;19.50;;;4.13;;
14510;SDS011;7341;50.930;4.038;2023-02-01T11:06:28;10.17;;;2.87;;
14510;SDS011;7341;50.930;4.038;2023-02-01T11:08:58;9.73;;;2.97;;
14510;SDS011;7341;50.930;4.038;2023-02-01T11:11:28;8.60;;;2.87;;
14510;SDS011;7341;50.930;4.038;2023-02-01T11:13:56;14.30;;;2.70;;
14510;SDS011;7341;50.930;4.038;2023-02-01T11:16:30;9.87;;;2.63;;
14510;SDS011;7341;50.930;4.038;2023-02-01T11:19:01;15.03;;;2.70;;
14510;SDS011;7341;50.930;4.038;2023-02-01T11:21:29;12.07;;;2.43;;
14510;SDS011;7341;50.930;4.038;2023-02-01T11:23:59;13.97;;;2.73;;
14510;SDS011;7341;50.930;4.038;2023-02-01T11:26:27;11.27;;;3.17;;
14510;SDS011;7341;50.930;4.038;2023-02-01T11:28:56;9.97;;;2.63;;
14510;SDS011;7341;50.930;4.038;2023-02-01T11:31:28;11.87;;;2.70;;
14510;SDS011;7341;50.930;4.038;2023-02-01T11:33:59;14.90;;;2.80;;
14510;SDS011;7341;50.930;4.038;2023-02-01T11:36:32;10.90;;;2.80;;
14510;SDS011;7341;50.930;4.038;2023-02-01T11:39:10;10.63;;;2.50;;
14510;SDS011;7341;50.930;4.038;2023-02-01T11:41:56;10.47;;;2.13;;
14510;SDS011;7341;50.930;4.038;2023-02-01T11:44:30;9.30;;;2.57;;
14510;SDS011;7341;50.930;4.038;2023-02-01T11:47:23;14.53;;;3.60;;
14510;SDS011;7341;50.930;4.038;2023-02-01T11:49:52;16.47;;;3.03;;
14510;SDS011;7341;50.930;4.038;2023-02-01T11:52:39;10.63;;;2.70;;
14510;SDS011;7341;50.930;4.038;2023-02-01T11:55:18;11.83;;;2.80;;
14510;SDS011;7341;50.930;4.038;2023-02-01T11:58:12;18.02;;;3.90;;
14510;SDS011;7341;50.930;4.038;2023-02-01T12:00:55;12.40;;;2.53;;
14510;SDS011;7341;50.930;4.038;2023-02-01T12:06:43;6.57;;;1.60;;
14510;SDS011;7341;50.930;4.038;2023-02-01T12:09:27;9.30;;;2.17;;
14510;SDS011;7341;50.930;4.038;2023-02-01T12:12:03;9.97;;;2.50;;
14510;SDS011;7341;50.930;4.038;2023-02-01T12:14:52;11.43;;;2.37;;
14510;SDS011;7341;50.930;4.038;2023-02-01T12:17:35;11.52;;;2.90;;
14510;SDS011;7341;50.930;4.038;2023-02-01T12:20:23;10.57;;;3.13;;
14510;SDS011;7341;50.930;4.038;2023-02-01T12:23:04;7.80;;;2.63;;
14510;SDS011;7341;50.930;4.038;2023-02-01T12:25:43;10.13;;;2.20;;
14510;SDS011;7341;50.930;4.038;2023-02-01T12:28:29;11.10;;;2.10;;
14510;SDS011;7341;50.930;4.038;2023-02-01T12:31:24;15.30;;;2.43;;
14510;SDS011;7341;50.930;4.038;2023-02-01T12:34:08;10.37;;;1.67;;
14510;SDS011;7341;50.930;4.038;2023-02-01T12:36:47;9.67;;;2.40;;
14510;SDS011;7341;50.930;4.038;2023-02-01T12:39:22;9.80;;;1.80;;
14510;SDS011;7341;50.930;4.038;2023-02-01T12:41:55;5.97;;;2.93;;
14510;SDS011;7341;50.930;4.038;2023-02-01T12:44:28;9.30;;;1.80;;
14510;SDS011;7341;50.930;4.038;2023-02-01T12:47:12;8.90;;;2.90;;
14510;SDS011;7341;50.930;4.038;2023-02-01T12:49:47;4.87;;;1.87;;
14510;SDS011;7341;50.930;4.038;2023-02-01T12:52:22;6.67;;;2.10;;
14510;SDS011;7341;50.930;4.038;2023-02-01T12:54:55;6.63;;;1.90;;
14510;SDS011;7341;50.930;4.038;2023-02-01T12:57:28;9.80;;;2.00;;
14510;SDS011;7341;50.930;4.038;2023-02-01T13:00:00;11.00;;;2.70;;
14510;SDS011;7341;50.930;4.038;2023-02-01T13:02:35;7.80;;;1.60;;
14510;SDS011;7341;50.930;4.038;2023-02-01T13:05:11;10.03;;;2.00;;
14510;SDS011;7341;50.930;4.038;2023-02-01T13:07:47;7.83;;;2.33;;
14510;SDS011;7341;50.930;4.038;2023-02-01T13:10:21;8.97;;;2.00;;
14510;SDS011;7341;50.930;4.038;2023-02-01T13:12:54;8.20;;;2.00;;
14510;SDS011;7341;50.930;4.038;2023-02-01T13:15:26;7.93;;;2.23;;
14510;SDS011;7341;50.930;4.038;2023-02-01T13:17:57;10.83;;;2.53;;
14510;SDS011;7341;50.930;4.038;2023-02-01T13:20:29;8.13;;;2.47;;
14510;SDS011;7341;50.930;4.038;2023-02-01T13:23:01;8.00;;;2.00;;
14510;SDS011;7341;50.930;4.038;2023-02-01T13:25:32;9.57;;;2.07;;
14510;SDS011;7341;50.930;4.038;2023-02-01T13:28:04;12.25;;;3.30;;
14510;SDS011;7341;50.930;4.038;2023-02-01T13:30:38;10.50;;;2.00;;
14510;SDS011;7341;50.930;4.038;2023-02-01T13:33:25;8.27;;;2.40;;
14510;SDS011;7341;50.930;4.038;2023-02-01T13:36:19;11.07;;;2.63;;
14510;SDS011;7341;50.930;4.038;2023-02-01T13:42:20;7.33;;;2.00;;
14510;SDS011;7341;50.930;4.038;2023-02-01T13:44:50;6.73;;;2.37;;
14510;SDS011;7341;50.930;4.038;2023-02-01T13:47:25;7.80;;;1.77;;
14510;SDS011;7341;50.930;4.038;2023-02-01T13:49:59;7.83;;;2.50;;
14510;SDS011;7341;50.930;4.038;2023-02-01T13:52:29;5.87;;;1.60;;
14510;SDS011;7341;50.930;4.038;2023-02-01T13:55:03;9.27;;;2.13;;
14510;SDS011;7341;50.930;4.038;2023-02-01T13:57:43;5.33;;;1.87;;
14510;SDS011;7341;50.930;4.038;2023-02-01T14:00:23;9.43;;;2.43;;
14510;SDS011;7341;50.930;4.038;2023-02-01T14:03:02;8.07;;;2.03;;
14510;SDS011;7341;50.930;4.038;2023-02-01T14:09:05;7.83;;;1.97;;
14510;SDS011;7341;50.930;4.038;2023-02-01T14:11:48;5.90;;;1.90;;
14510;SDS011;7341;50.930;4.038;2023-02-01T14:23:21;13.27;;;2.80;;
14510;SDS011;7341;50.930;4.038;2023-02-01T14:28:44;13.43;;;2.50;;
14510;SDS011;7341;50.930;4.038;2023-02-01T14:34:21;7.80;;;1.90;;
14510;SDS011;7341;50.930;4.038;2023-02-01T14:37:00;6.57;;;2.00;;
14510;SDS011;7341;50.930;4.038;2023-02-01T14:39:31;13.27;;;2.70;;
14510;SDS011;7341;50.930;4.038;2023-02-01T14:42:04;11.80;;;2.97;;
14510;SDS011;7341;50.930;4.038;2023-02-01T14:44:40;14.50;;;3.00;;
14510;SDS011;7341;50.930;4.038;2023-02-01T14:50:16;8.07;;;1.87;;
14510;SDS011;7341;50.930;4.038;2023-02-01T14:53:10;7.47;;;2.10;;
14510;SDS011;7341;50.930;4.038;2023-02-01T14:55:44;10.67;;;2.50;;
14510;SDS011;7341;50.930;4.038;2023-02-01T14:58:16;11.23;;;3.07;;
14510;SDS011;7341;50.930;4.038;2023-02-01T15:00:56;12.27;;;2.50;;
14510;SDS011;7341;50.930;4.038;2023-02-01T15:03:38;13.40;;;2.67;;
14510;SDS011;7341;50.930;4.038;2023-02-01T15:06:29;11.20;;;2.97;;
14510;SDS011;7341;50.930;4.038;2023-02-01T15:09:01;10.30;;;2.47;;
14510;SDS011;7341;50.930;4.038;2023-02-01T15:11:31;18.47;;;2.77;;
14510;SDS011;7341;50.930;4.038;2023-02-01T15:13:58;6.63;;;3.07;;
14510;SDS011;7341;50.930;4.038;2023-02-01T15:16:27;14.97;;;3.67;;
14510;SDS011;7341;50.930;4.038;2023-02-01T15:19:10;14.70;;;2.93;;
14510;SDS011;7341;50.930;4.038;2023-02-01T15:21:43;11.67;;;2.80;;
14510;SDS011;7341;50.930;4.038;2023-02-01T15:24:12;11.43;;;3.43;;
14510;SDS011;7341;50.930;4.038;2023-02-01T15:26:46;17.47;;;3.60;;
14510;SDS011;7341;50.930;4.038;2023-02-01T15:29:13;8.60;;;2.40;;
14510;SDS011;7341;50.930;4.038;2023-02-01T15:31:42;8.60;;;2.73;;
14510;SDS011;7341;50.930;4.038;2023-02-01T15:34:12;12.03;;;2.50;;
14510;SDS011;7341;50.930;4.038;2023-02-01T15:36:39;8.67;;;2.63;;
14510;SDS011;7341;50.930;4.038;2023-02-01T15:39:14;11.87;;;2.53;;
14510;SDS011;7341;50.930;4.038;2023-02-01T15:41:48;11.73;;;2.73;;
14510;SDS011;7341;50.930;4.038;2023-02-01T15:44:18;11.03;;;2.57;;
14510;SDS011;7341;50.930;4.038;2023-02-01T15:46:49;14.70;;;3.07;;
14510;SDS011;7341;50.930;4.038;2023-02-01T15:49:20;7.27;;;2.47;;
14510;SDS011;7341;50.930;4.038;2023-02-01T15:51:51;14.67;;;3.47;;
14510;SDS011;7341;50.930;4.038;2023-02-01T15:54:19;14.33;;;3.40;;
14510;SDS011;7341;50.930;4.038;2023-02-01T15:56:51;9.50;;;2.90;;
14510;SDS011;7341;50.930;4.038;2023-02-01T15:59:23;12.07;;;2.77;;
14510;SDS011;7341;50.930;4.038;2023-02-01T16:01:55;14.17;;;3.47;;
14510;SDS011;7341;50.930;4.038;2023-02-01T16:04:25;12.53;;;2.93;;